createdAt,value
2023-03-11T00:00:18.000Z,66.87
2023-03-11T00:01:11.000Z,66.63
2023-03-11T00:02:11.000Z,66.92
2023-03-11T00:03:13.000Z,66.28
2023-03-11T00:04:11.000Z,64.82
2023-03-11T00:05:23.000Z,64.26
2023-03-11T00:06:11.000Z,64.44
2023-03-11T00:07:11.000Z,64.70
2023-03-11T00:08:14.000Z,63.97
2023-03-11T00:09:11.000Z,64.04
2023-03-11T00:10:17.000Z,63.23
2023-03-11T00:11:10.000Z,63.67
2023-03-11T00:12:11.000Z,63.48
2023-03-11T00:13:13.000Z,62.68
2023-03-11T00:14:11.000Z,63.51
2023-03-11T00:15:12.000Z,63.76
2023-03-11T00:16:11.000Z,63.57
2023-03-11T00:17:11.000Z,63.21
2023-03-11T00:18:11.000Z,63.92
2023-03-11T00:19:11.000Z,63.69
2023-03-11T00:20:20.000Z,64.05
2023-03-11T00:21:15.000Z,64.62
2023-03-11T00:22:11.000Z,64.54
2023-03-11T00:23:12.000Z,64.10
2023-03-11T00:24:11.000Z,63.73
2023-03-11T00:25:12.000Z,63.33
2023-03-11T00:26:11.000Z,63.60
2023-03-11T00:27:11.000Z,63.64
2023-03-11T00:28:12.000Z,63.71
2023-03-11T00:29:10.000Z,63.49
2023-03-11T00:30:12.000Z,63.50
2023-03-11T00:31:11.000Z,63.54
2023-03-11T00:32:11.000Z,63.07
2023-03-11T00:33:13.000Z,63.02
2023-03-11T00:34:11.000Z,63.31
2023-03-11T00:35:13.000Z,63.19
2023-03-11T00:36:21.000Z,63.11
2023-03-11T00:37:10.000Z,63.14
2023-03-11T00:38:13.000Z,63.26
2023-03-11T00:39:10.000Z,63.17
2023-03-11T00:40:13.000Z,63.61
2023-03-11T00:41:11.000Z,63.13
2023-03-11T00:42:11.000Z,63.47
2023-03-11T00:43:11.000Z,63.40
2023-03-11T00:44:10.000Z,63.47
2023-03-11T00:45:11.000Z,63.71
2023-03-11T00:46:10.000Z,63.53
2023-03-11T00:47:10.000Z,63.95
2023-03-11T00:48:12.000Z,64.53
2023-03-11T00:49:10.000Z,64.28
2023-03-11T00:50:18.000Z,64.25
2023-03-11T00:51:13.000Z,63.94
2023-03-11T00:52:10.000Z,64.20
2023-03-11T00:53:11.000Z,65.02
2023-03-11T00:54:10.000Z,64.63
2023-03-11T00:55:13.000Z,64.35
2023-03-11T00:56:12.000Z,64.32
2023-03-11T00:57:10.000Z,64.21
2023-03-11T00:58:11.000Z,64.45
2023-03-11T00:59:10.000Z,64.76
2023-03-11T01:00:17.000Z,65.06
2023-03-11T01:01:14.000Z,64.21
2023-03-11T01:02:10.000Z,64.43
2023-03-11T01:03:10.000Z,64.41
2023-03-11T01:04:11.000Z,64.30
2023-03-11T01:05:12.000Z,64.22
2023-03-11T01:06:11.000Z,64.07
2023-03-11T01:07:10.000Z,64.42
2023-03-11T01:08:11.000Z,64.31
2023-03-11T01:09:11.000Z,63.91
2023-03-11T01:10:11.000Z,63.54
2023-03-11T01:11:11.000Z,63.87
2023-03-11T01:12:11.000Z,64.01
2023-03-11T01:13:11.000Z,63.82
2023-03-11T01:14:11.000Z,63.66
2023-03-11T01:15:21.000Z,64.19
2023-03-11T01:16:11.000Z,63.83
2023-03-11T01:17:11.000Z,63.84
2023-03-11T01:18:12.000Z,63.40
2023-03-11T01:19:11.000Z,63.60
2023-03-11T01:20:12.000Z,63.31
2023-03-11T01:21:11.000Z,63.29
2023-03-11T01:22:11.000Z,63.18
2023-03-11T01:23:12.000Z,63.41
2023-03-11T01:24:11.000Z,63.40
2023-03-11T01:25:13.000Z,63.39
2023-03-11T01:26:11.000Z,63.10
2023-03-11T01:27:11.000Z,63.29
2023-03-11T01:28:11.000Z,63.39
2023-03-11T01:29:11.000Z,63.37
2023-03-11T01:30:18.000Z,63.80
2023-03-11T01:31:11.000Z,63.70
2023-03-11T01:32:11.000Z,63.78
2023-03-11T01:33:17.000Z,63.86
2023-03-11T01:34:11.000Z,64.32
2023-03-11T01:35:14.000Z,64.12
2023-03-11T01:36:11.000Z,64.52
2023-03-11T01:37:11.000Z,64.28
2023-03-11T01:38:11.000Z,64.53
2023-03-11T01:39:11.000Z,64.32
2023-03-11T01:40:23.000Z,64.55
2023-03-11T01:41:11.000Z,64.66
2023-03-11T01:42:11.000Z,64.71
2023-03-11T01:43:21.000Z,64.92
2023-03-11T01:44:11.000Z,65.18
2023-03-11T01:45:21.000Z,65.03
2023-03-11T01:46:34.000Z,65.11
2023-03-11T01:47:31.000Z,65.19
2023-03-11T01:48:11.000Z,65.29
2023-03-11T01:49:11.000Z,65.22
2023-03-11T01:50:12.000Z,65.63
2023-03-11T01:51:12.000Z,65.50
2023-03-11T01:52:11.000Z,65.70
2023-03-11T01:53:14.000Z,66.16
2023-03-11T01:54:22.000Z,65.92
2023-03-11T01:55:13.000Z,66.09
2023-03-11T01:56:12.000Z,66.32
2023-03-11T01:57:13.000Z,66.21
2023-03-11T01:58:17.000Z,66.36
2023-03-11T01:59:16.000Z,66.43
2023-03-11T02:00:13.000Z,66.65
2023-03-11T02:01:12.000Z,66.50
2023-03-11T02:02:19.000Z,66.70
2023-03-11T02:03:20.000Z,66.56
2023-03-11T02:04:12.000Z,66.44
2023-03-11T02:05:11.000Z,66.74
2023-03-11T02:06:16.000Z,66.28
2023-03-11T02:07:12.000Z,66.00
2023-03-11T02:08:11.000Z,66.22
2023-03-11T02:09:11.000Z,66.32
2023-03-11T02:10:12.000Z,66.46
2023-03-11T02:11:17.000Z,66.34
2023-03-11T02:12:13.000Z,66.37
2023-03-11T02:13:11.000Z,66.37
2023-03-11T02:14:11.000Z,66.38
2023-03-11T02:15:11.000Z,66.56
2023-03-11T02:16:13.000Z,66.32
2023-03-11T02:17:11.000Z,66.45
2023-03-11T02:18:13.000Z,66.54
2023-03-11T02:19:36.000Z,66.55
2023-03-11T02:20:26.000Z,66.21
2023-03-11T02:21:21.000Z,66.51
2023-03-11T02:22:12.000Z,66.36
2023-03-11T02:23:16.000Z,66.42
2023-03-11T02:24:23.000Z,66.42
2023-03-11T02:25:21.000Z,66.60
2023-03-11T02:26:22.000Z,66.42
2023-03-11T02:27:13.000Z,66.41
2023-03-11T02:28:13.000Z,66.29
2023-03-11T02:29:11.000Z,66.61
2023-03-11T02:30:12.000Z,66.41
2023-03-11T02:31:11.000Z,66.36
2023-03-11T02:32:11.000Z,66.45
2023-03-11T02:33:12.000Z,66.37
2023-03-11T02:34:20.000Z,66.48
2023-03-11T02:35:10.000Z,66.17
2023-03-11T02:36:20.000Z,66.21
2023-03-11T02:37:14.000Z,66.41
2023-03-11T02:38:12.000Z,66.36
2023-03-11T02:39:10.000Z,66.59
2023-03-11T02:40:31.000Z,66.40
2023-03-11T02:41:11.000Z,66.36
2023-03-11T02:42:17.000Z,66.58
2023-03-11T02:43:13.000Z,66.55
2023-03-11T02:44:13.000Z,66.56
2023-03-11T02:45:14.000Z,66.45
2023-03-11T02:46:12.000Z,66.64
2023-03-11T02:47:11.000Z,66.38
2023-03-11T02:48:12.000Z,66.41
2023-03-11T02:49:11.000Z,66.41
2023-03-11T02:50:15.000Z,66.34
2023-03-11T02:51:11.000Z,66.23
2023-03-11T02:52:11.000Z,66.36
2023-03-11T02:53:11.000Z,66.45
2023-03-11T02:54:10.000Z,66.15
2023-03-11T02:55:10.000Z,66.37
2023-03-11T02:56:10.000Z,66.20
2023-03-11T02:57:10.000Z,66.51
2023-03-11T02:58:10.000Z,66.54
2023-03-11T02:59:10.000Z,66.70
2023-03-11T03:00:15.000Z,66.36
2023-03-11T03:01:10.000Z,66.43
2023-03-11T03:02:10.000Z,66.28
2023-03-11T03:03:10.000Z,66.45
2023-03-11T03:04:10.000Z,66.33
2023-03-11T03:05:11.000Z,66.41
2023-03-11T03:06:12.000Z,66.54
2023-03-11T03:07:11.000Z,66.69
2023-03-11T03:08:11.000Z,66.79
2023-03-11T03:09:11.000Z,66.93
2023-03-11T03:10:11.000Z,66.85
2023-03-11T03:11:11.000Z,67.00
2023-03-11T03:12:11.000Z,67.16
2023-03-11T03:13:11.000Z,66.99
2023-03-11T03:14:11.000Z,67.14
2023-03-11T03:15:11.000Z,67.23
2023-03-11T03:16:11.000Z,67.22
2023-03-11T03:17:11.000Z,67.14
2023-03-11T03:18:11.000Z,67.19
2023-03-11T03:19:11.000Z,67.17
2023-03-11T03:20:13.000Z,67.34
2023-03-11T03:21:11.000Z,67.58
2023-03-11T03:22:11.000Z,67.45
2023-03-11T03:23:11.000Z,67.39
2023-03-11T03:24:11.000Z,67.36
2023-03-11T03:25:11.000Z,67.31
2023-03-11T03:26:12.000Z,67.44
2023-03-11T03:27:11.000Z,67.50
2023-03-11T03:28:12.000Z,67.44
2023-03-11T03:29:11.000Z,67.80
2023-03-11T03:30:11.000Z,67.82
2023-03-11T03:31:12.000Z,67.47
2023-03-11T03:32:11.000Z,67.64
2023-03-11T03:33:11.000Z,67.69
2023-03-11T03:34:11.000Z,67.63
2023-03-11T03:35:11.000Z,67.59
2023-03-11T03:36:13.000Z,67.74
2023-03-11T03:37:11.000Z,67.51
2023-03-11T03:38:12.000Z,67.50
2023-03-11T03:39:11.000Z,67.57
2023-03-11T03:40:12.000Z,67.57
2023-03-11T03:41:14.000Z,67.68
2023-03-11T03:42:11.000Z,67.67
2023-03-11T03:43:11.000Z,67.88
2023-03-11T03:44:11.000Z,67.68
2023-03-11T03:45:11.000Z,67.97
2023-03-11T03:46:11.000Z,68.02
2023-03-11T03:47:11.000Z,67.99
2023-03-11T03:48:11.000Z,67.88
2023-03-11T03:49:11.000Z,67.75
2023-03-11T03:50:11.000Z,67.72
2023-03-11T03:51:12.000Z,67.83
2023-03-11T03:52:11.000Z,68.07
2023-03-11T03:53:11.000Z,68.00
2023-03-11T03:54:11.000Z,67.85
2023-03-11T03:55:11.000Z,67.89
2023-03-11T03:56:14.000Z,68.04
2023-03-11T03:57:11.000Z,68.10
2023-03-11T03:58:11.000Z,68.14
2023-03-11T03:59:11.000Z,68.01
2023-03-11T04:00:12.000Z,68.04
2023-03-11T04:01:12.000Z,68.08
2023-03-11T04:02:11.000Z,68.10
2023-03-11T04:03:11.000Z,68.31
2023-03-11T04:04:11.000Z,68.54
2023-03-11T04:05:11.000Z,68.35
2023-03-11T04:06:18.000Z,68.23
2023-03-11T04:07:11.000Z,68.18
2023-03-11T04:08:10.000Z,68.20
2023-03-11T04:09:11.000Z,68.27
2023-03-11T04:10:12.000Z,68.36
2023-03-11T04:11:11.000Z,68.25
2023-03-11T04:12:14.000Z,68.37
2023-03-11T04:13:10.000Z,68.32
2023-03-11T04:14:12.000Z,68.36
2023-03-11T04:15:10.000Z,68.28
2023-03-11T04:16:15.000Z,68.37
2023-03-11T04:17:12.000Z,68.56
2023-03-11T04:18:10.000Z,68.59
2023-03-11T04:19:10.000Z,68.67
2023-03-11T04:20:11.000Z,68.40
2023-03-11T04:21:10.000Z,68.69
2023-03-11T04:22:10.000Z,68.58
2023-03-11T04:23:11.000Z,68.58
2023-03-11T04:24:10.000Z,68.66
2023-03-11T04:25:10.000Z,68.71
2023-03-11T04:26:11.000Z,68.95
2023-03-11T04:27:10.000Z,68.49
2023-03-11T04:28:11.000Z,68.53
2023-03-11T04:29:10.000Z,68.87
2023-03-11T04:30:11.000Z,68.59
2023-03-11T04:31:10.000Z,68.70
2023-03-11T04:32:10.000Z,68.91
2023-03-11T04:33:10.000Z,68.87
2023-03-11T04:34:10.000Z,68.79
2023-03-11T04:35:10.000Z,68.92
2023-03-11T04:36:11.000Z,68.82
2023-03-11T04:37:10.000Z,68.78
2023-03-11T04:38:11.000Z,68.76
2023-03-11T04:39:11.000Z,68.89
2023-03-11T04:40:11.000Z,68.75
2023-03-11T04:41:11.000Z,68.78
2023-03-11T04:42:12.000Z,68.78
2023-03-11T04:43:11.000Z,68.62
2023-03-11T04:44:11.000Z,68.83
2023-03-11T04:45:12.000Z,68.82
2023-03-11T04:46:11.000Z,68.77
2023-03-11T04:47:11.000Z,68.91
2023-03-11T04:48:11.000Z,68.75
2023-03-11T04:49:11.000Z,68.86
2023-03-11T04:50:11.000Z,69.05
2023-03-11T04:51:11.000Z,68.93
2023-03-11T04:52:11.000Z,69.04
2023-03-11T04:53:11.000Z,69.20
2023-03-11T04:54:11.000Z,69.02
2023-03-11T04:55:13.000Z,69.14
2023-03-11T04:56:11.000Z,69.12
2023-03-11T04:57:11.000Z,69.16
2023-03-11T04:58:11.000Z,69.10
2023-03-11T04:59:10.000Z,69.00
2023-03-11T05:00:12.000Z,69.34
2023-03-11T05:01:10.000Z,69.24
2023-03-11T05:02:11.000Z,69.54
2023-03-11T05:03:11.000Z,69.41
2023-03-11T05:04:11.000Z,69.22
2023-03-11T05:05:11.000Z,69.24
2023-03-11T05:06:11.000Z,69.44
2023-03-11T05:07:11.000Z,69.23
2023-03-11T05:08:10.000Z,69.24
2023-03-11T05:09:10.000Z,69.30
2023-03-11T05:10:11.000Z,69.39
2023-03-11T05:11:11.000Z,69.32
2023-03-11T05:12:11.000Z,69.70
2023-03-11T05:13:10.000Z,69.62
2023-03-11T05:14:10.000Z,69.40
2023-03-11T05:15:10.000Z,69.23
2023-03-11T05:16:11.000Z,69.48
2023-03-11T05:17:12.000Z,69.24
2023-03-11T05:18:11.000Z,69.19
2023-03-11T05:19:16.000Z,69.33
2023-03-11T05:20:11.000Z,69.69
2023-03-11T05:21:11.000Z,69.58
2023-03-11T05:22:11.000Z,69.54
2023-03-11T05:23:10.000Z,69.46
2023-03-11T05:24:11.000Z,69.52
2023-03-11T05:25:11.000Z,69.47
2023-03-11T05:26:11.000Z,69.68
2023-03-11T05:27:11.000Z,69.78
2023-03-11T05:28:11.000Z,69.82
2023-03-11T05:29:11.000Z,69.54
2023-03-11T05:30:11.000Z,69.82
2023-03-11T05:31:11.000Z,70.01
2023-03-11T05:32:11.000Z,69.89
2023-03-11T05:33:10.000Z,69.99
2023-03-11T05:34:11.000Z,69.48
2023-03-11T05:35:11.000Z,69.28
2023-03-11T05:36:11.000Z,69.41
2023-03-11T05:37:11.000Z,69.55
2023-03-11T05:38:11.000Z,69.78
2023-03-11T05:39:11.000Z,69.94
2023-03-11T05:40:11.000Z,69.95
2023-03-11T05:41:11.000Z,69.90
2023-03-11T05:42:11.000Z,69.99
2023-03-11T05:43:11.000Z,69.98
2023-03-11T05:44:11.000Z,69.83
2023-03-11T05:45:11.000Z,69.85
2023-03-11T05:46:11.000Z,70.03
2023-03-11T05:47:11.000Z,70.09
2023-03-11T05:48:11.000Z,70.06
2023-03-11T05:49:11.000Z,69.98
2023-03-11T05:50:11.000Z,69.84
2023-03-11T05:51:11.000Z,69.88
2023-03-11T05:52:11.000Z,69.95
2023-03-11T05:53:11.000Z,70.54
2023-03-11T05:54:14.000Z,70.22
2023-03-11T05:55:11.000Z,70.22
2023-03-11T05:56:11.000Z,70.18
2023-03-11T05:57:11.000Z,70.49
2023-03-11T05:58:11.000Z,70.64
2023-03-11T05:59:12.000Z,70.55
2023-03-11T06:00:12.000Z,70.76
2023-03-11T06:01:14.000Z,70.55
2023-03-11T06:02:11.000Z,70.65
2023-03-11T06:03:11.000Z,71.07
2023-03-11T06:04:11.000Z,71.31
2023-03-11T06:05:11.000Z,71.49
2023-03-11T06:06:12.000Z,71.72
2023-03-11T06:07:13.000Z,71.91
2023-03-11T06:08:11.000Z,71.65
2023-03-11T06:09:13.000Z,72.09
2023-03-11T06:10:11.000Z,72.26
2023-03-11T06:11:11.000Z,72.05
2023-03-11T06:12:11.000Z,71.56
2023-03-11T06:13:11.000Z,71.85
2023-03-11T06:14:13.000Z,71.80
2023-03-11T06:15:12.000Z,72.02
2023-03-11T06:16:11.000Z,72.00
2023-03-11T06:17:11.000Z,72.25
2023-03-11T06:18:11.000Z,72.03
2023-03-11T06:19:11.000Z,72.10
2023-03-11T06:20:11.000Z,71.99
2023-03-11T06:21:17.000Z,72.14
2023-03-11T06:22:11.000Z,71.99
2023-03-11T06:23:11.000Z,72.06
2023-03-11T06:24:11.000Z,71.89
2023-03-11T06:25:11.000Z,71.95
2023-03-11T06:26:17.000Z,71.78
2023-03-11T06:27:11.000Z,71.52
2023-03-11T06:28:11.000Z,71.67
2023-03-11T06:29:14.000Z,71.59
2023-03-11T06:30:11.000Z,71.32
2023-03-11T06:31:15.000Z,71.27
2023-03-11T06:32:11.000Z,71.22
2023-03-11T06:33:13.000Z,71.48
2023-03-11T06:34:11.000Z,71.45
2023-03-11T06:35:11.000Z,71.69
2023-03-11T06:36:15.000Z,71.62
2023-03-11T06:37:11.000Z,71.61
2023-03-11T06:38:11.000Z,71.53
2023-03-11T06:39:12.000Z,71.67
2023-03-11T06:40:11.000Z,71.48
2023-03-11T06:41:11.000Z,71.73
2023-03-11T06:42:11.000Z,71.60
2023-03-11T06:43:10.000Z,71.69
2023-03-11T06:44:11.000Z,71.77
2023-03-11T06:45:10.000Z,71.61
2023-03-11T06:46:14.000Z,71.73
2023-03-11T06:47:11.000Z,72.14
2023-03-11T06:48:10.000Z,72.35
2023-03-11T06:49:10.000Z,72.78
2023-03-11T06:50:10.000Z,72.65
2023-03-11T06:51:11.000Z,72.38
2023-03-11T06:52:10.000Z,72.51
2023-03-11T06:53:10.000Z,72.69
2023-03-11T06:54:10.000Z,72.94
2023-03-11T06:55:10.000Z,72.63
2023-03-11T06:56:12.000Z,72.69
2023-03-11T06:57:11.000Z,72.60
2023-03-11T06:58:10.000Z,72.72
2023-03-11T06:59:13.000Z,72.82
2023-03-11T07:00:12.000Z,72.71
2023-03-11T07:01:14.000Z,72.67
2023-03-11T07:02:12.000Z,72.61
2023-03-11T07:03:10.000Z,72.70
2023-03-11T07:04:10.000Z,72.83
2023-03-11T07:05:11.000Z,72.70
2023-03-11T07:06:15.000Z,72.83
2023-03-11T07:07:10.000Z,72.80
2023-03-11T07:08:10.000Z,72.79
2023-03-11T07:09:11.000Z,72.77
2023-03-11T07:10:10.000Z,72.76
2023-03-11T07:11:14.000Z,73.18
2023-03-11T07:12:10.000Z,72.73
2023-03-11T07:13:11.000Z,72.92
2023-03-11T07:14:11.000Z,72.86
2023-03-11T07:15:11.000Z,72.67
2023-03-11T07:16:16.000Z,72.69
2023-03-11T07:17:11.000Z,72.52
2023-03-11T07:18:10.000Z,72.43
2023-03-11T07:19:11.000Z,72.41
2023-03-11T07:20:11.000Z,72.39
2023-03-11T07:21:14.000Z,72.23
2023-03-11T07:22:11.000Z,72.21
2023-03-11T07:23:10.000Z,72.17
2023-03-11T07:24:11.000Z,72.36
2023-03-11T07:25:10.000Z,72.59
2023-03-11T07:26:13.000Z,72.74
2023-03-11T07:27:11.000Z,72.72
2023-03-11T07:28:10.000Z,72.70
2023-03-11T07:29:10.000Z,72.61
2023-03-11T07:30:11.000Z,72.72
2023-03-11T07:31:15.000Z,72.76
2023-03-11T07:32:10.000Z,72.24
2023-03-11T07:33:11.000Z,72.28
2023-03-11T07:34:11.000Z,72.34
2023-03-11T07:35:10.000Z,72.02
2023-03-11T07:36:13.000Z,72.06
2023-03-11T07:37:10.000Z,71.88
2023-03-11T07:38:11.000Z,71.34
2023-03-11T07:39:14.000Z,70.97
2023-03-11T07:40:11.000Z,71.34
2023-03-11T07:41:12.000Z,71.05
2023-03-11T07:42:11.000Z,71.18
2023-03-11T07:43:11.000Z,71.14
2023-03-11T07:44:12.000Z,70.93
2023-03-11T07:45:11.000Z,70.75
2023-03-11T07:46:13.000Z,71.00
2023-03-11T07:47:11.000Z,71.20
2023-03-11T07:48:11.000Z,71.37
2023-03-11T07:49:11.000Z,71.45
2023-03-11T07:50:11.000Z,71.23
2023-03-11T07:51:14.000Z,71.08
2023-03-11T07:52:11.000Z,70.66
2023-03-11T07:53:11.000Z,70.57
2023-03-11T07:54:11.000Z,70.61
2023-03-11T07:55:11.000Z,70.17
2023-03-11T07:56:13.000Z,70.51
2023-03-11T07:57:15.000Z,70.31
2023-03-11T07:58:11.000Z,68.73
2023-03-11T07:59:11.000Z,69.48
2023-03-11T08:00:12.000Z,68.65
2023-03-11T08:01:16.000Z,68.66
2023-03-11T08:02:11.000Z,68.57
2023-03-11T08:03:11.000Z,67.70
2023-03-11T08:04:12.000Z,67.45
2023-03-11T08:05:11.000Z,67.85
2023-03-11T08:06:13.000Z,67.95
2023-03-11T08:07:11.000Z,68.34
2023-03-11T08:08:11.000Z,68.62
2023-03-11T08:09:11.000Z,68.45
2023-03-11T08:10:11.000Z,68.14
2023-03-11T08:11:12.000Z,68.08
2023-03-11T08:12:10.000Z,68.06
2023-03-11T08:13:10.000Z,67.28
2023-03-11T08:14:10.000Z,67.35
2023-03-11T08:15:10.000Z,67.76
2023-03-11T08:16:14.000Z,67.93
2023-03-11T08:17:10.000Z,67.77
2023-03-11T08:18:10.000Z,67.30
2023-03-11T08:19:12.000Z,67.20
2023-03-11T08:20:11.000Z,67.35
2023-03-11T08:21:15.000Z,67.15
2023-03-11T08:22:10.000Z,67.50
2023-03-11T08:23:11.000Z,67.50
2023-03-11T08:24:12.000Z,67.02
2023-03-11T08:25:10.000Z,66.76
2023-03-11T08:26:13.000Z,66.69
2023-03-11T08:27:11.000Z,66.77
2023-03-11T08:28:11.000Z,66.44
2023-03-11T08:29:10.000Z,66.23
2023-03-11T08:30:11.000Z,65.97
2023-03-11T08:31:16.000Z,66.04
2023-03-11T08:32:10.000Z,66.41
2023-03-11T08:33:10.000Z,66.61
2023-03-11T08:34:11.000Z,66.41
2023-03-11T08:35:11.000Z,66.29
2023-03-11T08:36:11.000Z,66.27
2023-03-11T08:37:10.000Z,66.35
2023-03-11T08:38:10.000Z,66.62
2023-03-11T08:39:10.000Z,66.63
2023-03-11T08:40:11.000Z,65.83
2023-03-11T08:41:10.000Z,66.48
2023-03-11T08:42:10.000Z,65.86
2023-03-11T08:43:11.000Z,66.09
2023-03-11T08:44:10.000Z,66.21
2023-03-11T08:45:10.000Z,66.35
2023-03-11T08:46:21.000Z,66.34
2023-03-11T08:47:10.000Z,66.39
2023-03-11T08:48:10.000Z,65.67
2023-03-11T08:49:10.000Z,66.16
2023-03-11T08:50:15.000Z,65.94
2023-03-11T08:51:10.000Z,65.66
2023-03-11T08:52:10.000Z,65.11
2023-03-11T08:53:10.000Z,65.87
2023-03-11T08:54:10.000Z,65.51
2023-03-11T08:55:15.000Z,65.96
2023-03-11T08:56:10.000Z,64.64
2023-03-11T08:57:10.000Z,64.80
2023-03-11T08:58:10.000Z,64.52
2023-03-11T08:59:10.000Z,64.55
2023-03-11T09:00:11.000Z,64.83
2023-03-11T09:01:11.000Z,64.45
2023-03-11T09:02:10.000Z,63.90
2023-03-11T09:03:11.000Z,63.25
2023-03-11T09:04:10.000Z,63.75
2023-03-11T09:05:10.000Z,63.05
2023-03-11T09:06:12.000Z,63.31
2023-03-11T09:07:15.000Z,63.85
2023-03-11T09:08:10.000Z,63.18
2023-03-11T09:09:10.000Z,62.63
2023-03-11T09:10:14.000Z,63.20
2023-03-11T09:11:13.000Z,63.06
2023-03-11T09:12:12.000Z,63.24
2023-03-11T09:13:11.000Z,63.08
2023-03-11T09:14:10.000Z,62.79
2023-03-11T09:15:10.000Z,62.73
2023-03-11T09:16:17.000Z,62.91
2023-03-11T09:17:11.000Z,62.93
2023-03-11T09:18:12.000Z,63.01
2023-03-11T09:19:10.000Z,62.91
2023-03-11T09:20:12.000Z,62.58
2023-03-11T09:21:11.000Z,61.89
2023-03-11T09:22:11.000Z,62.09
2023-03-11T09:23:13.000Z,62.45
2023-03-11T09:24:10.000Z,62.43
2023-03-11T09:25:11.000Z,60.79
2023-03-11T09:26:11.000Z,60.63
2023-03-11T09:27:11.000Z,61.29
2023-03-11T09:28:10.000Z,61.69
2023-03-11T09:29:10.000Z,62.66
2023-03-11T09:30:11.000Z,62.87
2023-03-11T09:31:11.000Z,61.87
2023-03-11T09:32:12.000Z,61.74
2023-03-11T09:33:10.000Z,61.88
2023-03-11T09:34:11.000Z,62.31
2023-03-11T09:35:10.000Z,60.30
2023-03-11T09:36:13.000Z,60.66
2023-03-11T09:37:11.000Z,61.07
2023-03-11T09:38:10.000Z,60.46
2023-03-11T09:39:11.000Z,59.22
2023-03-11T09:40:15.000Z,58.92
2023-03-11T09:41:24.000Z,59.66
2023-03-11T09:42:44.000Z,58.04
2023-03-11T09:43:26.000Z,57.86
2023-03-11T09:44:22.000Z,56.89
2023-03-11T09:45:20.000Z,57.35
2023-03-11T09:46:24.000Z,57.56
2023-03-11T09:47:21.000Z,58.36
2023-03-11T09:48:31.000Z,56.86
2023-03-11T09:49:31.000Z,56.62
2023-03-11T09:50:21.000Z,56.51
2023-03-11T09:51:19.000Z,55.97
2023-03-11T09:52:14.000Z,56.19
2023-03-11T09:53:23.000Z,56.08
2023-03-11T09:54:12.000Z,56.20
2023-03-11T09:55:30.000Z,55.78
2023-03-11T09:56:17.000Z,56.32
2023-03-11T09:57:16.000Z,54.28
2023-03-11T09:58:33.000Z,53.83
2023-03-11T09:59:21.000Z,54.05
2023-03-11T10:00:14.000Z,54.77
2023-03-11T10:01:19.000Z,54.67
2023-03-11T10:02:15.000Z,53.87
2023-03-11T10:03:27.000Z,52.76
2023-03-11T10:04:22.000Z,52.90
2023-03-11T10:05:21.000Z,53.77
2023-03-11T10:06:18.000Z,53.89
2023-03-11T10:07:15.000Z,54.69
2023-03-11T10:08:21.000Z,55.06
2023-03-11T10:09:34.000Z,55.02
2023-03-11T10:10:27.000Z,55.73
2023-03-11T10:11:20.000Z,53.61
2023-03-11T10:12:20.000Z,53.13
2023-03-11T10:13:21.000Z,52.34
2023-03-11T10:14:23.000Z,53.04
2023-03-11T10:15:33.000Z,54.00
2023-03-11T10:16:20.000Z,53.85
2023-03-11T10:17:20.000Z,52.88
2023-03-11T10:18:21.000Z,53.75
2023-03-11T10:19:20.000Z,55.14
2023-03-11T10:20:27.000Z,54.72
2023-03-11T10:21:22.000Z,54.48
2023-03-11T10:22:27.000Z,54.40
2023-03-11T10:23:27.000Z,54.81
2023-03-11T10:24:46.000Z,54.02
2023-03-11T10:25:18.000Z,54.35
2023-03-11T10:26:18.000Z,54.60
2023-03-11T10:27:19.000Z,54.11
2023-03-11T10:28:17.000Z,52.97
2023-03-11T10:29:19.000Z,52.04
2023-03-11T10:30:33.000Z,51.60
2023-03-11T10:31:23.000Z,51.41
2023-03-11T10:32:23.000Z,51.69
2023-03-11T10:33:21.000Z,52.16
2023-03-11T10:34:19.000Z,51.53
2023-03-11T10:35:16.000Z,50.80
2023-03-11T10:36:17.000Z,50.98
2023-03-11T10:37:16.000Z,50.61
2023-03-11T10:38:18.000Z,48.76
2023-03-11T10:39:11.000Z,50.57
2023-03-11T10:40:17.000Z,50.51
2023-03-11T10:41:34.000Z,51.22
2023-03-11T10:42:14.000Z,50.66
2023-03-11T10:43:29.000Z,51.03
2023-03-11T10:44:33.000Z,50.58
2023-03-11T10:45:13.000Z,50.71
2023-03-11T10:46:21.000Z,49.66
2023-03-11T10:47:15.000Z,50.38
2023-03-11T10:48:13.000Z,50.10
2023-03-11T10:49:13.000Z,50.67
2023-03-11T10:50:15.000Z,51.63
2023-03-11T10:51:16.000Z,51.90
2023-03-11T10:52:10.000Z,51.98
2023-03-11T10:53:15.000Z,52.59
2023-03-11T10:54:19.000Z,53.45
2023-03-11T10:55:14.000Z,53.03
2023-03-11T10:56:27.000Z,52.31
2023-03-11T10:57:21.000Z,51.61
2023-03-11T10:58:12.000Z,49.95
2023-03-11T10:59:20.000Z,51.07
2023-03-11T11:00:27.000Z,51.17
2023-03-11T11:01:15.000Z,50.88
2023-03-11T11:02:31.000Z,50.62
2023-03-11T11:03:19.000Z,50.83
2023-03-11T11:04:28.000Z,50.56
2023-03-11T11:05:31.000Z,50.22
2023-03-11T11:06:20.000Z,50.91
2023-03-11T11:07:19.000Z,51.69
2023-03-11T11:08:14.000Z,50.93
2023-03-11T11:09:19.000Z,48.96
2023-03-11T11:10:20.000Z,47.79
2023-03-11T11:11:21.000Z,47.69
2023-03-11T11:12:13.000Z,48.56
2023-03-11T11:13:22.000Z,48.67
2023-03-11T11:14:10.000Z,46.07
2023-03-11T11:15:23.000Z,46.91
2023-03-11T11:16:17.000Z,47.95
2023-03-11T11:17:31.000Z,46.75
2023-03-11T11:18:21.000Z,46.73
2023-03-11T11:19:12.000Z,47.25
2023-03-11T11:20:16.000Z,47.54
2023-03-11T11:21:26.000Z,46.47
2023-03-11T11:22:17.000Z,47.69
2023-03-11T11:23:24.000Z,46.93
2023-03-11T11:24:18.000Z,47.57
2023-03-11T11:25:34.000Z,46.13
2023-03-11T11:26:17.000Z,47.52
2023-03-11T11:27:20.000Z,45.64
2023-03-11T11:28:16.000Z,45.45
2023-03-11T11:29:19.000Z,45.40
2023-03-11T11:30:16.000Z,45.40
2023-03-11T11:31:21.000Z,44.38
2023-03-11T11:32:23.000Z,43.66
2023-03-11T11:33:20.000Z,44.71
2023-03-11T11:34:20.000Z,45.57
2023-03-11T11:35:13.000Z,44.11
2023-03-11T11:36:14.000Z,44.65
2023-03-11T11:37:12.000Z,45.00
2023-03-11T11:38:10.000Z,44.23
2023-03-11T11:39:17.000Z,45.19
2023-03-11T11:40:30.000Z,45.52
2023-03-11T11:41:17.000Z,46.44
2023-03-11T11:42:13.000Z,46.17
2023-03-11T11:43:16.000Z,45.02
2023-03-11T11:44:16.000Z,45.15
2023-03-11T11:45:15.000Z,43.50
2023-03-11T11:46:33.000Z,42.51
2023-03-11T11:47:17.000Z,42.71
2023-03-11T11:48:21.000Z,42.23
2023-03-11T11:49:21.000Z,43.32
2023-03-11T11:50:31.000Z,42.97
2023-03-11T11:51:26.000Z,41.83
2023-03-11T11:52:14.000Z,42.28
2023-03-11T11:53:33.000Z,42.10
2023-03-11T11:54:20.000Z,41.88
2023-03-11T11:55:23.000Z,42.83
2023-03-11T11:56:11.000Z,42.60
2023-03-11T11:57:13.000Z,43.50
2023-03-11T11:58:13.000Z,42.90
2023-03-11T11:59:20.000Z,42.33
2023-03-11T12:00:31.000Z,43.34
2023-03-11T12:01:20.000Z,41.86
2023-03-11T12:02:27.000Z,42.81
2023-03-11T12:03:22.000Z,42.85
2023-03-11T12:04:24.000Z,41.67
2023-03-11T12:05:22.000Z,42.29
2023-03-11T12:06:25.000Z,41.65
2023-03-11T12:07:20.000Z,43.32
2023-03-11T12:08:24.000Z,43.42
2023-03-11T12:09:32.000Z,43.88
2023-03-11T12:10:20.000Z,43.61
2023-03-11T12:11:23.000Z,42.63
2023-03-11T12:12:21.000Z,42.33
2023-03-11T12:13:25.000Z,42.19
2023-03-11T12:14:22.000Z,42.60
2023-03-11T12:15:22.000Z,42.32
2023-03-11T12:16:20.000Z,43.38
2023-03-11T12:17:15.000Z,42.21
2023-03-11T12:18:19.000Z,42.40
2023-03-11T12:19:30.000Z,41.73
2023-03-11T12:20:18.000Z,42.03
2023-03-11T12:21:37.000Z,41.89
2023-03-11T12:22:42.000Z,42.31
2023-03-11T12:23:43.000Z,40.66
2023-03-11T12:24:28.000Z,41.08
2023-03-11T12:25:19.000Z,41.79
2023-03-11T12:26:20.000Z,42.14
2023-03-11T12:27:28.000Z,41.76
2023-03-11T12:28:30.000Z,40.17
2023-03-11T12:29:26.000Z,41.07
2023-03-11T12:30:21.000Z,41.83
2023-03-11T12:31:13.000Z,42.41
2023-03-11T12:32:27.000Z,41.79
2023-03-11T12:33:16.000Z,41.37
2023-03-11T12:34:13.000Z,40.91
2023-03-11T12:35:21.000Z,40.15
2023-03-11T12:36:19.000Z,41.39
2023-03-11T12:37:13.000Z,41.05
2023-03-11T12:38:33.000Z,41.70
2023-03-11T12:39:27.000Z,40.81
2023-03-11T12:40:20.000Z,40.18
2023-03-11T12:41:29.000Z,38.59
2023-03-11T12:42:16.000Z,39.38
2023-03-11T12:43:20.000Z,38.04
2023-03-11T12:44:20.000Z,40.07
2023-03-11T12:45:20.000Z,39.41
2023-03-11T12:46:13.000Z,38.71
2023-03-11T12:47:24.000Z,39.33
2023-03-11T12:48:21.000Z,38.83
2023-03-11T12:49:12.000Z,39.41
2023-03-11T12:50:20.000Z,38.54
2023-03-11T12:51:20.000Z,38.90
2023-03-11T12:52:25.000Z,39.08